sensor_id;sensor_type;location;lat;lon;timestamp;temperature;humidity
10964;DHT22;5534;48.784;9.190;2024-03-08T00:02:03;7.60;99.90
10964;DHT22;5534;48.784;9.190;2024-03-08T00:04:29;7.70;99.90
10964;DHT22;5534;48.784;9.190;2024-03-08T00:06:54;7.60;99.90
10964;DHT22;5534;48.784;9.190;2024-03-08T00:09:20;7.50;99.90
10964;DHT22;5534;48.784;9.190;2024-03-08T00:11:47;7.40;99.90
10964;DHT22;5534;48.784;9.190;2024-03-08T00:14:14;7.40;99.90
10964;DHT22;5534;48.784;9.190;2024-03-08T00:16:40;7.40;99.90
10964;DHT22;5534;48.784;9.190;2024-03-08T00:19:09;7.30;99.90
10964;DHT22;5534;48.784;9.190;2024-03-08T00:21:34;7.40;99.90
10964;DHT22;5534;48.784;9.190;2024-03-08T00:24:01;7.40;99.90
10964;DHT22;5534;48.784;9.190;2024-03-08T00:26:26;7.40;99.90
10964;DHT22;5534;48.784;9.190;2024-03-08T00:28:52;7.40;99.90
10964;DHT22;5534;48.784;9.190;2024-03-08T00:31:19;7.40;99.90
10964;DHT22;5534;48.784;9.190;2024-03-08T00:33:45;7.40;99.90
10964;DHT22;5534;48.784;9.190;2024-03-08T00:36:11;7.40;99.90
10964;DHT22;5534;48.784;9.190;2024-03-08T00:38:36;7.40;99.90
10964;DHT22;5534;48.784;9.190;2024-03-08T00:41:02;7.40;99.90
10964;DHT22;5534;48.784;9.190;2024-03-08T00:43:28;7.40;99.90
10964;DHT22;5534;48.784;9.190;2024-03-08T00:45:55;7.30;99.90
10964;DHT22;5534;48.784;9.190;2024-03-08T00:48:21;7.20;99.90
10964;DHT22;5534;48.784;9.190;2024-03-08T00:50:47;7.30;99.90
10964;DHT22;5534;48.784;9.190;2024-03-08T00:53:12;7.30;99.90
10964;DHT22;5534;48.784;9.190;2024-03-08T00:55:38;7.30;99.90
10964;DHT22;5534;48.784;9.190;2024-03-08T00:58:04;7.30;99.90
10964;DHT22;5534;48.784;9.190;2024-03-08T01:00:30;7.30;99.90
10964;DHT22;5534;48.784;9.190;2024-03-08T01:02:56;7.30;99.90
10964;DHT22;5534;48.784;9.190;2024-03-08T01:05:22;7.20;99.90
10964;DHT22;5534;48.784;9.190;2024-03-08T01:07:50;7.00;99.90
10964;DHT22;5534;48.784;9.190;2024-03-08T01:10:15;7.50;99.90
10964;DHT22;5534;48.784;9.190;2024-03-08T01:12:41;7.10;99.90
10964;DHT22;5534;48.784;9.190;2024-03-08T01:15:09;7.00;99.90
10964;DHT22;5534;48.784;9.190;2024-03-08T01:17:34;6.90;99.90
10964;DHT22;5534;48.784;9.190;2024-03-08T01:20:00;7.00;99.90
10964;DHT22;5534;48.784;9.190;2024-03-08T01:22:26;6.90;99.90
10964;DHT22;5534;48.784;9.190;2024-03-08T01:24:53;6.80;99.90
10964;DHT22;5534;48.784;9.190;2024-03-08T01:27:19;6.80;99.90
10964;DHT22;5534;48.784;9.190;2024-03-08T01:29:44;6.90;99.90
10964;DHT22;5534;48.784;9.190;2024-03-08T01:32:10;6.60;99.90
10964;DHT22;5534;48.784;9.190;2024-03-08T01:34:35;6.80;99.90
10964;DHT22;5534;48.784;9.190;2024-03-08T01:37:02;6.80;99.90
10964;DHT22;5534;48.784;9.190;2024-03-08T01:39:27;6.80;99.90
10964;DHT22;5534;48.784;9.190;2024-03-08T01:41:53;6.80;99.90
10964;DHT22;5534;48.784;9.190;2024-03-08T01:44:19;6.50;99.90
10964;DHT22;5534;48.784;9.190;2024-03-08T01:46:46;6.50;99.90
10964;DHT22;5534;48.784;9.190;2024-03-08T01:49:13;6.50;99.90
10964;DHT22;5534;48.784;9.190;2024-03-08T01:51:40;6.30;99.90
10964;DHT22;5534;48.784;9.190;2024-03-08T01:54:07;6.40;99.90
10964;DHT22;5534;48.784;9.190;2024-03-08T01:56:36;6.50;99.90
10964;DHT22;5534;48.784;9.190;2024-03-08T01:59:03;6.20;99.90
10964;DHT22;5534;48.784;9.190;2024-03-08T02:01:29;6.30;99.90
10964;DHT22;5534;48.784;9.190;2024-03-08T02:03:55;6.00;99.90
10964;DHT22;5534;48.784;9.190;2024-03-08T02:06:20;6.30;99.90
10964;DHT22;5534;48.784;9.190;2024-03-08T02:08:46;6.20;99.90
10964;DHT22;5534;48.784;9.190;2024-03-08T02:11:12;6.40;99.90
10964;DHT22;5534;48.784;9.190;2024-03-08T02:13:38;6.40;99.90
10964;DHT22;5534;48.784;9.190;2024-03-08T02:16:04;6.40;99.90
10964;DHT22;5534;48.784;9.190;2024-03-08T02:18:33;6.40;99.90
10964;DHT22;5534;48.784;9.190;2024-03-08T02:21:01;6.30;99.90
10964;DHT22;5534;48.784;9.190;2024-03-08T02:23:28;6.00;99.90
10964;DHT22;5534;48.784;9.190;2024-03-08T02:25:54;6.00;99.90
10964;DHT22;5534;48.784;9.190;2024-03-08T02:28:23;6.00;99.90
10964;DHT22;5534;48.784;9.190;2024-03-08T02:30:50;6.00;99.90
10964;DHT22;5534;48.784;9.190;2024-03-08T02:33:17;6.20;99.90
10964;DHT22;5534;48.784;9.190;2024-03-08T02:35:44;6.10;99.90
10964;DHT22;5534;48.784;9.190;2024-03-08T02:38:13;6.00;99.90
10964;DHT22;5534;48.784;9.190;2024-03-08T02:40:42;6.00;99.90
10964;DHT22;5534;48.784;9.190;2024-03-08T02:43:08;6.10;99.90
10964;DHT22;5534;48.784;9.190;2024-03-08T02:45:34;6.10;99.90
10964;DHT22;5534;48.784;9.190;2024-03-08T02:48:00;6.00;99.90
10964;DHT22;5534;48.784;9.190;2024-03-08T02:50:26;6.10;99.90
10964;DHT22;5534;48.784;9.190;2024-03-08T02:52:53;6.20;99.90
10964;DHT22;5534;48.784;9.190;2024-03-08T02:55:20;6.10;99.90
10964;DHT22;5534;48.784;9.190;2024-03-08T02:57:46;5.90;99.90
10964;DHT22;5534;48.784;9.190;2024-03-08T03:00:15;5.80;99.90
10964;DHT22;5534;48.784;9.190;2024-03-08T03:02:41;5.30;99.90
10964;DHT22;5534;48.784;9.190;2024-03-08T03:05:08;5.40;99.90
10964;DHT22;5534;48.784;9.190;2024-03-08T03:07:35;5.50;99.90
10964;DHT22;5534;48.784;9.190;2024-03-08T03:10:01;5.50;99.90
10964;DHT22;5534;48.784;9.190;2024-03-08T03:12:31;5.50;99.90
10964;DHT22;5534;48.784;9.190;2024-03-08T03:14:57;5.60;99.90
10964;DHT22;5534;48.784;9.190;2024-03-08T03:17:23;5.70;99.90
10964;DHT22;5534;48.784;9.190;2024-03-08T03:19:50;5.60;99.90
10964;DHT22;5534;48.784;9.190;2024-03-08T03:22:17;5.60;99.90
10964;DHT22;5534;48.784;9.190;2024-03-08T03:24:43;5.60;99.90
10964;DHT22;5534;48.784;9.190;2024-03-08T03:27:09;5.70;99.90
10964;DHT22;5534;48.784;9.190;2024-03-08T03:29:42;5.90;99.90
10964;DHT22;5534;48.784;9.190;2024-03-08T03:32:11;6.00;99.90
10964;DHT22;5534;48.784;9.190;2024-03-08T03:34:37;6.10;99.90
10964;DHT22;5534;48.784;9.190;2024-03-08T03:37:03;5.80;99.90
10964;DHT22;5534;48.784;9.190;2024-03-08T03:39:30;5.60;99.90
10964;DHT22;5534;48.784;9.190;2024-03-08T03:42:00;5.60;99.90
10964;DHT22;5534;48.784;9.190;2024-03-08T03:44:27;5.80;99.90
10964;DHT22;5534;48.784;9.190;2024-03-08T03:46:53;5.80;99.90
10964;DHT22;5534;48.784;9.190;2024-03-08T03:49:19;6.00;99.90
10964;DHT22;5534;48.784;9.190;2024-03-08T03:51:45;6.10;99.90
10964;DHT22;5534;48.784;9.190;2024-03-08T03:54:11;6.10;99.90
10964;DHT22;5534;48.784;9.190;2024-03-08T03:56:37;6.00;99.90
10964;DHT22;5534;48.784;9.190;2024-03-08T03:59:05;5.90;99.90
10964;DHT22;5534;48.784;9.190;2024-03-08T04:01:32;6.10;99.90
10964;DHT22;5534;48.784;9.190;2024-03-08T04:03:57;6.20;99.90
10964;DHT22;5534;48.784;9.190;2024-03-08T04:06:23;6.20;99.90
10964;DHT22;5534;48.784;9.190;2024-03-08T04:08:49;6.30;99.90
10964;DHT22;5534;48.784;9.190;2024-03-08T04:11:15;6.00;99.90
10964;DHT22;5534;48.784;9.190;2024-03-08T04:13:42;6.00;99.90
10964;DHT22;5534;48.784;9.190;2024-03-08T04:16:08;6.10;99.90
10964;DHT22;5534;48.784;9.190;2024-03-08T04:18:34;6.20;99.90
10964;DHT22;5534;48.784;9.190;2024-03-08T04:21:02;6.20;99.90
10964;DHT22;5534;48.784;9.190;2024-03-08T04:23:28;6.30;99.90
10964;DHT22;5534;48.784;9.190;2024-03-08T04:25:54;6.30;99.90
10964;DHT22;5534;48.784;9.190;2024-03-08T04:28:19;6.30;99.90
10964;DHT22;5534;48.784;9.190;2024-03-08T04:30:45;6.20;99.90
10964;DHT22;5534;48.784;9.190;2024-03-08T04:33:11;6.10;99.90
10964;DHT22;5534;48.784;9.190;2024-03-08T04:35:37;6.20;99.90
10964;DHT22;5534;48.784;9.190;2024-03-08T04:38:02;6.10;99.90
10964;DHT22;5534;48.784;9.190;2024-03-08T04:40:30;6.00;99.90
10964;DHT22;5534;48.784;9.190;2024-03-08T04:42:58;6.00;99.90
10964;DHT22;5534;48.784;9.190;2024-03-08T04:45:24;6.10;99.90
10964;DHT22;5534;48.784;9.190;2024-03-08T04:47:51;6.00;99.90
10964;DHT22;5534;48.784;9.190;2024-03-08T04:50:18;6.10;99.90
10964;DHT22;5534;48.784;9.190;2024-03-08T04:52:43;5.80;99.90
10964;DHT22;5534;48.784;9.190;2024-03-08T04:55:09;6.00;99.90
10964;DHT22;5534;48.784;9.190;2024-03-08T04:57:38;6.10;99.90
10964;DHT22;5534;48.784;9.190;2024-03-08T05:00:03;6.20;99.90
10964;DHT22;5534;48.784;9.190;2024-03-08T05:02:37;6.20;99.90
10964;DHT22;5534;48.784;9.190;2024-03-08T05:05:05;6.10;99.90
10964;DHT22;5534;48.784;9.190;2024-03-08T05:07:31;6.10;99.90
10964;DHT22;5534;48.784;9.190;2024-03-08T05:09:58;6.00;99.90
10964;DHT22;5534;48.784;9.190;2024-03-08T05:12:24;6.00;99.90
10964;DHT22;5534;48.784;9.190;2024-03-08T05:14:50;5.80;99.90
10964;DHT22;5534;48.784;9.190;2024-03-08T05:17:16;5.60;99.90
10964;DHT22;5534;48.784;9.190;2024-03-08T05:19:44;5.80;99.90
10964;DHT22;5534;48.784;9.190;2024-03-08T05:22:10;5.70;99.90
10964;DHT22;5534;48.784;9.190;2024-03-08T05:24:36;5.70;99.90
10964;DHT22;5534;48.784;9.190;2024-03-08T05:27:03;6.00;99.90
10964;DHT22;5534;48.784;9.190;2024-03-08T05:29:30;6.00;99.90
10964;DHT22;5534;48.784;9.190;2024-03-08T05:31:55;5.80;99.90
10964;DHT22;5534;48.784;9.190;2024-03-08T05:34:23;5.90;99.90
10964;DHT22;5534;48.784;9.190;2024-03-08T05:36:49;6.00;99.90
10964;DHT22;5534;48.784;9.190;2024-03-08T05:39:20;5.90;99.90
10964;DHT22;5534;48.784;9.190;2024-03-08T05:41:45;5.80;99.90
10964;DHT22;5534;48.784;9.190;2024-03-08T05:44:12;5.90;99.90
10964;DHT22;5534;48.784;9.190;2024-03-08T05:46:38;6.00;99.90
10964;DHT22;5534;48.784;9.190;2024-03-08T05:49:04;6.10;99.90
10964;DHT22;5534;48.784;9.190;2024-03-08T05:51:34;6.10;99.90
10964;DHT22;5534;48.784;9.190;2024-03-08T05:54:04;6.10;99.90
10964;DHT22;5534;48.784;9.190;2024-03-08T05:56:31;6.10;99.90
10964;DHT22;5534;48.784;9.190;2024-03-08T05:58:56;6.10;99.90
10964;DHT22;5534;48.784;9.190;2024-03-08T06:01:24;5.90;99.90
10964;DHT22;5534;48.784;9.190;2024-03-08T06:03:49;5.80;99.90
10964;DHT22;5534;48.784;9.190;2024-03-08T06:06:15;6.00;99.90
10964;DHT22;5534;48.784;9.190;2024-03-08T06:08:42;6.00;99.90
10964;DHT22;5534;48.784;9.190;2024-03-08T06:11:09;6.00;99.90
10964;DHT22;5534;48.784;9.190;2024-03-08T06:13:35;6.10;99.90
10964;DHT22;5534;48.784;9.190;2024-03-08T06:16:01;6.10;99.90
10964;DHT22;5534;48.784;9.190;2024-03-08T06:18:31;6.20;99.90
10964;DHT22;5534;48.784;9.190;2024-03-08T06:20:56;5.90;99.90
10964;DHT22;5534;48.784;9.190;2024-03-08T06:23:22;6.10;99.90
10964;DHT22;5534;48.784;9.190;2024-03-08T06:25:48;6.20;99.90
10964;DHT22;5534;48.784;9.190;2024-03-08T06:28:14;6.20;99.90
10964;DHT22;5534;48.784;9.190;2024-03-08T06:30:40;6.20;99.90
10964;DHT22;5534;48.784;9.190;2024-03-08T06:33:06;6.30;99.90
10964;DHT22;5534;48.784;9.190;2024-03-08T06:35:32;6.40;99.90
10964;DHT22;5534;48.784;9.190;2024-03-08T06:37:58;6.30;99.90
10964;DHT22;5534;48.784;9.190;2024-03-08T06:40:24;6.30;99.90
10964;DHT22;5534;48.784;9.190;2024-03-08T06:42:50;6.30;99.90
10964;DHT22;5534;48.784;9.190;2024-03-08T06:45:17;6.10;99.90
10964;DHT22;5534;48.784;9.190;2024-03-08T06:47:46;6.20;99.90
10964;DHT22;5534;48.784;9.190;2024-03-08T06:50:12;6.10;99.90
10964;DHT22;5534;48.784;9.190;2024-03-08T06:52:38;6.30;99.90
10964;DHT22;5534;48.784;9.190;2024-03-08T06:55:05;6.40;99.90
10964;DHT22;5534;48.784;9.190;2024-03-08T06:57:31;6.40;99.90
10964;DHT22;5534;48.784;9.190;2024-03-08T06:59:57;6.50;99.90
10964;DHT22;5534;48.784;9.190;2024-03-08T07:02:23;6.50;99.90
10964;DHT22;5534;48.784;9.190;2024-03-08T07:04:52;6.20;99.90
10964;DHT22;5534;48.784;9.190;2024-03-08T07:07:18;6.20;99.90
10964;DHT22;5534;48.784;9.190;2024-03-08T07:09:46;6.40;99.90
10964;DHT22;5534;48.784;9.190;2024-03-08T07:12:11;6.50;99.90
10964;DHT22;5534;48.784;9.190;2024-03-08T07:14:39;6.60;99.90
10964;DHT22;5534;48.784;9.190;2024-03-08T07:17:24;6.60;99.90
10964;DHT22;5534;48.784;9.190;2024-03-08T07:19:51;6.50;99.90
10964;DHT22;5534;48.784;9.190;2024-03-08T07:22:16;6.60;99.90
10964;DHT22;5534;48.784;9.190;2024-03-08T07:24:42;6.70;99.90
10964;DHT22;5534;48.784;9.190;2024-03-08T07:27:14;6.70;99.90
10964;DHT22;5534;48.784;9.190;2024-03-08T07:29:41;6.70;99.90
10964;DHT22;5534;48.784;9.190;2024-03-08T07:32:07;6.80;99.90
10964;DHT22;5534;48.784;9.190;2024-03-08T07:34:48;6.80;99.90
10964;DHT22;5534;48.784;9.190;2024-03-08T07:37:16;6.90;99.90
10964;DHT22;5534;48.784;9.190;2024-03-08T07:39:41;6.60;99.90
10964;DHT22;5534;48.784;9.190;2024-03-08T07:42:08;6.70;99.90
10964;DHT22;5534;48.784;9.190;2024-03-08T07:44:35;6.80;99.90
10964;DHT22;5534;48.784;9.190;2024-03-08T07:47:00;6.80;99.90
10964;DHT22;5534;48.784;9.190;2024-03-08T07:49:26;6.80;99.90
10964;DHT22;5534;48.784;9.190;2024-03-08T07:51:52;6.80;99.90
10964;DHT22;5534;48.784;9.190;2024-03-08T07:54:17;6.80;99.90
10964;DHT22;5534;48.784;9.190;2024-03-08T07:56:43;6.90;99.90
10964;DHT22;5534;48.784;9.190;2024-03-08T07:59:08;7.00;99.90
10964;DHT22;5534;48.784;9.190;2024-03-08T08:01:36;7.00;99.90
10964;DHT22;5534;48.784;9.190;2024-03-08T08:04:02;7.10;99.90
10964;DHT22;5534;48.784;9.190;2024-03-08T08:06:27;6.90;99.90
10964;DHT22;5534;48.784;9.190;2024-03-08T08:08:57;6.80;99.90
10964;DHT22;5534;48.784;9.190;2024-03-08T08:11:22;6.80;99.90
10964;DHT22;5534;48.784;9.190;2024-03-08T08:13:48;6.90;99.90
10964;DHT22;5534;48.784;9.190;2024-03-08T08:16:14;6.80;99.90
10964;DHT22;5534;48.784;9.190;2024-03-08T08:18:39;6.50;99.90
10964;DHT22;5534;48.784;9.190;2024-03-08T08:21:06;6.70;99.90
10964;DHT22;5534;48.784;9.190;2024-03-08T08:23:32;6.80;99.90
10964;DHT22;5534;48.784;9.190;2024-03-08T08:25:58;6.90;99.90
10964;DHT22;5534;48.784;9.190;2024-03-08T08:28:24;7.00;99.90
10964;DHT22;5534;48.784;9.190;2024-03-08T08:30:50;7.00;99.90
10964;DHT22;5534;48.784;9.190;2024-03-08T08:33:16;6.90;99.90
10964;DHT22;5534;48.784;9.190;2024-03-08T08:35:42;7.00;99.90
10964;DHT22;5534;48.784;9.190;2024-03-08T08:38:08;6.90;99.90
10964;DHT22;5534;48.784;9.190;2024-03-08T08:40:34;6.80;99.90
10964;DHT22;5534;48.784;9.190;2024-03-08T08:43:01;6.90;99.90
10964;DHT22;5534;48.784;9.190;2024-03-08T08:45:30;7.00;99.90
10964;DHT22;5534;48.784;9.190;2024-03-08T08:47:56;7.10;99.90
10964;DHT22;5534;48.784;9.190;2024-03-08T08:50:22;6.90;99.90
10964;DHT22;5534;48.784;9.190;2024-03-08T08:52:50;6.90;99.90
10964;DHT22;5534;48.784;9.190;2024-03-08T08:55:16;6.70;99.90
10964;DHT22;5534;48.784;9.190;2024-03-08T08:57:46;6.90;99.90
10964;DHT22;5534;48.784;9.190;2024-03-08T09:00:13;6.80;99.90
10964;DHT22;5534;48.784;9.190;2024-03-08T09:02:41;6.90;99.90
10964;DHT22;5534;48.784;9.190;2024-03-08T09:05:07;6.90;99.90
10964;DHT22;5534;48.784;9.190;2024-03-08T09:07:37;7.10;99.90
10964;DHT22;5534;48.784;9.190;2024-03-08T09:10:03;7.10;99.90
10964;DHT22;5534;48.784;9.190;2024-03-08T09:12:30;7.00;99.90
10964;DHT22;5534;48.784;9.190;2024-03-08T09:15:00;7.00;99.90
10964;DHT22;5534;48.784;9.190;2024-03-08T09:17:26;7.00;99.90
10964;DHT22;5534;48.784;9.190;2024-03-08T09:19:52;7.10;99.90
10964;DHT22;5534;48.784;9.190;2024-03-08T09:22:18;7.00;99.90
10964;DHT22;5534;48.784;9.190;2024-03-08T09:24:43;6.90;99.90
10964;DHT22;5534;48.784;9.190;2024-03-08T09:27:09;6.80;99.90
10964;DHT22;5534;48.784;9.190;2024-03-08T09:29:35;7.00;99.90
10964;DHT22;5534;48.784;9.190;2024-03-08T09:32:01;7.10;99.90
10964;DHT22;5534;48.784;9.190;2024-03-08T09:34:27;7.20;99.90
10964;DHT22;5534;48.784;9.190;2024-03-08T09:36:52;7.30;99.90
10964;DHT22;5534;48.784;9.190;2024-03-08T09:39:19;7.30;99.90
10964;DHT22;5534;48.784;9.190;2024-03-08T09:41:46;7.30;99.90
10964;DHT22;5534;48.784;9.190;2024-03-08T09:44:15;7.40;99.90
10964;DHT22;5534;48.784;9.190;2024-03-08T09:46:42;7.50;99.90
10964;DHT22;5534;48.784;9.190;2024-03-08T09:49:08;7.50;99.90
10964;DHT22;5534;48.784;9.190;2024-03-08T09:51:34;7.50;99.90
10964;DHT22;5534;48.784;9.190;2024-03-08T09:54:04;7.40;99.90
10964;DHT22;5534;48.784;9.190;2024-03-08T09:56:32;7.40;99.90
10964;DHT22;5534;48.784;9.190;2024-03-08T09:59:01;7.40;99.90
10964;DHT22;5534;48.784;9.190;2024-03-08T10:01:45;7.00;99.90
10964;DHT22;5534;48.784;9.190;2024-03-08T10:04:11;7.00;99.90
10964;DHT22;5534;48.784;9.190;2024-03-08T10:06:37;7.10;99.90
10964;DHT22;5534;48.784;9.190;2024-03-08T10:09:03;7.20;99.90
10964;DHT22;5534;48.784;9.190;2024-03-08T10:11:30;7.30;99.90
10964;DHT22;5534;48.784;9.190;2024-03-08T10:13:55;7.50;99.90
10964;DHT22;5534;48.784;9.190;2024-03-08T10:16:22;7.40;99.90
10964;DHT22;5534;48.784;9.190;2024-03-08T10:18:49;7.60;99.90
10964;DHT22;5534;48.784;9.190;2024-03-08T10:21:15;7.70;99.90
10964;DHT22;5534;48.784;9.190;2024-03-08T10:23:42;7.80;99.90
10964;DHT22;5534;48.784;9.190;2024-03-08T10:26:12;7.60;99.90
10964;DHT22;5534;48.784;9.190;2024-03-08T10:28:45;7.70;99.90
10964;DHT22;5534;48.784;9.190;2024-03-08T10:31:16;7.60;99.90
10964;DHT22;5534;48.784;9.190;2024-03-08T10:33:42;7.80;99.90
10964;DHT22;5534;48.784;9.190;2024-03-08T10:36:10;7.80;99.90
10964;DHT22;5534;48.784;9.190;2024-03-08T10:38:40;7.80;99.90
10964;DHT22;5534;48.784;9.190;2024-03-08T10:41:07;7.80;99.90
10964;DHT22;5534;48.784;9.190;2024-03-08T10:49:39;7.90;99.90
10964;DHT22;5534;48.784;9.190;2024-03-08T10:52:09;7.90;99.90
10964;DHT22;5534;48.784;9.190;2024-03-08T10:54:37;7.80;99.90
10964;DHT22;5534;48.784;9.190;2024-03-08T10:57:06;7.90;99.90
10964;DHT22;5534;48.784;9.190;2024-03-08T10:59:34;8.10;99.90
10964;DHT22;5534;48.784;9.190;2024-03-08T11:02:01;8.00;99.90
10964;DHT22;5534;48.784;9.190;2024-03-08T11:04:26;8.00;99.90
10964;DHT22;5534;48.784;9.190;2024-03-08T11:07:02;8.10;99.90
10964;DHT22;5534;48.784;9.190;2024-03-08T11:09:36;8.30;99.90
10964;DHT22;5534;48.784;9.190;2024-03-08T11:14:48;8.70;99.90
10964;DHT22;5534;48.784;9.190;2024-03-08T11:18:01;8.50;99.90
10964;DHT22;5534;48.784;9.190;2024-03-08T11:20:11;8.20;99.90
10964;DHT22;5534;48.784;9.190;2024-03-08T11:22:54;8.30;99.90
10964;DHT22;5534;48.784;9.190;2024-03-08T11:25:38;8.70;99.90
10964;DHT22;5534;48.784;9.190;2024-03-08T11:28:18;8.60;99.90
10964;DHT22;5534;48.784;9.190;2024-03-08T11:31:22;8.80;99.90
10964;DHT22;5534;48.784;9.190;2024-03-08T11:33:35;8.80;99.90
10964;DHT22;5534;48.784;9.190;2024-03-08T11:38:40;9.10;99.90
10964;DHT22;5534;48.784;9.190;2024-03-08T11:41:06;8.90;99.90
10964;DHT22;5534;48.784;9.190;2024-03-08T11:43:33;8.80;99.90
10964;DHT22;5534;48.784;9.190;2024-03-08T11:46:08;8.80;99.90
10964;DHT22;5534;48.784;9.190;2024-03-08T11:48:34;8.70;99.90
10964;DHT22;5534;48.784;9.190;2024-03-08T11:51:04;8.60;99.90
10964;DHT22;5534;48.784;9.190;2024-03-08T11:53:30;8.80;99.90
10964;DHT22;5534;48.784;9.190;2024-03-08T11:56:09;8.90;99.90
10964;DHT22;5534;48.784;9.190;2024-03-08T11:58:35;9.20;99.90
10964;DHT22;5534;48.784;9.190;2024-03-08T12:01:05;9.50;99.90
10964;DHT22;5534;48.784;9.190;2024-03-08T12:03:42;9.60;99.90
10964;DHT22;5534;48.784;9.190;2024-03-08T12:06:11;9.70;99.90
10964;DHT22;5534;48.784;9.190;2024-03-08T12:08:39;9.70;99.90
10964;DHT22;5534;48.784;9.190;2024-03-08T12:11:05;9.60;99.90
10964;DHT22;5534;48.784;9.190;2024-03-08T12:13:32;9.60;99.90
10964;DHT22;5534;48.784;9.190;2024-03-08T12:16:00;9.80;99.90
10964;DHT22;5534;48.784;9.190;2024-03-08T12:18:26;9.90;99.90
10964;DHT22;5534;48.784;9.190;2024-03-08T12:21:14;9.90;99.90
10964;DHT22;5534;48.784;9.190;2024-03-08T12:23:44;9.90;99.90
10964;DHT22;5534;48.784;9.190;2024-03-08T12:26:13;9.80;99.90
10964;DHT22;5534;48.784;9.190;2024-03-08T12:28:40;9.70;99.90
10964;DHT22;5534;48.784;9.190;2024-03-08T12:31:11;9.20;99.90
10964;DHT22;5534;48.784;9.190;2024-03-08T12:36:15;9.80;99.90
10964;DHT22;5534;48.784;9.190;2024-03-08T12:38:44;10.00;99.90
10964;DHT22;5534;48.784;9.190;2024-03-08T12:41:09;10.20;99.90
10964;DHT22;5534;48.784;9.190;2024-03-08T12:43:35;10.20;99.90
10964;DHT22;5534;48.784;9.190;2024-03-08T12:46:01;10.20;99.90
10964;DHT22;5534;48.784;9.190;2024-03-08T12:48:27;10.30;99.90
10964;DHT22;5534;48.784;9.190;2024-03-08T12:50:52;10.30;99.90
10964;DHT22;5534;48.784;9.190;2024-03-08T12:53:20;10.30;99.90
10964;DHT22;5534;48.784;9.190;2024-03-08T12:55:45;10.30;99.90
10964;DHT22;5534;48.784;9.190;2024-03-08T12:58:11;10.30;99.90
10964;DHT22;5534;48.784;9.190;2024-03-08T13:00:37;10.40;99.90
10964;DHT22;5534;48.784;9.190;2024-03-08T13:03:05;10.10;99.90
10964;DHT22;5534;48.784;9.190;2024-03-08T13:05:32;10.40;99.90
10964;DHT22;5534;48.784;9.190;2024-03-08T13:07:57;10.70;99.90
10964;DHT22;5534;48.784;9.190;2024-03-08T13:10:23;10.60;99.90
10964;DHT22;5534;48.784;9.190;2024-03-08T13:12:49;10.40;99.90
10964;DHT22;5534;48.784;9.190;2024-03-08T13:15:15;10.80;99.90
10964;DHT22;5534;48.784;9.190;2024-03-08T13:17:48;11.00;99.90
10964;DHT22;5534;48.784;9.190;2024-03-08T13:20:14;11.00;99.90
10964;DHT22;5534;48.784;9.190;2024-03-08T13:22:45;11.00;99.90
10964;DHT22;5534;48.784;9.190;2024-03-08T13:25:11;11.10;99.90
10964;DHT22;5534;48.784;9.190;2024-03-08T13:27:40;10.90;99.90
10964;DHT22;5534;48.784;9.190;2024-03-08T13:30:09;11.10;99.90
10964;DHT22;5534;48.784;9.190;2024-03-08T13:32:41;11.20;99.90
10964;DHT22;5534;48.784;9.190;2024-03-08T13:35:11;10.90;99.90
10964;DHT22;5534;48.784;9.190;2024-03-08T13:37:42;10.80;99.90
10964;DHT22;5534;48.784;9.190;2024-03-08T13:40:08;10.80;99.90
10964;DHT22;5534;48.784;9.190;2024-03-08T13:42:39;10.80;99.90
10964;DHT22;5534;48.784;9.190;2024-03-08T13:45:07;11.00;99.90
10964;DHT22;5534;48.784;9.190;2024-03-08T13:47:34;10.90;99.90
10964;DHT22;5534;48.784;9.190;2024-03-08T13:49:59;11.00;99.90
10964;DHT22;5534;48.784;9.190;2024-03-08T13:52:26;11.10;99.90
10964;DHT22;5534;48.784;9.190;2024-03-08T13:54:55;11.20;99.90
10964;DHT22;5534;48.784;9.190;2024-03-08T13:57:20;10.90;99.90
10964;DHT22;5534;48.784;9.190;2024-03-08T13:59:48;10.80;99.90
10964;DHT22;5534;48.784;9.190;2024-03-08T14:02:16;10.80;99.90
10964;DHT22;5534;48.784;9.190;2024-03-08T14:04:42;10.80;99.90
10964;DHT22;5534;48.784;9.190;2024-03-08T14:07:08;10.80;99.90
10964;DHT22;5534;48.784;9.190;2024-03-08T14:09:34;10.90;99.90
10964;DHT22;5534;48.784;9.190;2024-03-08T14:12:04;11.00;99.90
10964;DHT22;5534;48.784;9.190;2024-03-08T14:14:33;10.90;99.90
10964;DHT22;5534;48.784;9.190;2024-03-08T14:17:02;10.90;99.90
10964;DHT22;5534;48.784;9.190;2024-03-08T14:19:29;11.00;99.90
10964;DHT22;5534;48.784;9.190;2024-03-08T14:21:59;11.10;99.90
10964;DHT22;5534;48.784;9.190;2024-03-08T14:24:25;10.80;99.90
10964;DHT22;5534;48.784;9.190;2024-03-08T14:26:51;11.10;99.90
10964;DHT22;5534;48.784;9.190;2024-03-08T14:29:17;11.20;99.90
10964;DHT22;5534;48.784;9.190;2024-03-08T14:31:46;11.20;99.90
10964;DHT22;5534;48.784;9.190;2024-03-08T14:34:11;11.30;99.90
10964;DHT22;5534;48.784;9.190;2024-03-08T14:36:39;11.30;99.90
10964;DHT22;5534;48.784;9.190;2024-03-08T14:39:05;11.30;99.90
10964;DHT22;5534;48.784;9.190;2024-03-08T14:41:33;11.40;99.90
10964;DHT22;5534;48.784;9.190;2024-03-08T14:43:58;11.50;99.90
10964;DHT22;5534;48.784;9.190;2024-03-08T14:46:25;11.40;99.90
10964;DHT22;5534;48.784;9.190;2024-03-08T14:48:55;11.40;99.90
10964;DHT22;5534;48.784;9.190;2024-03-08T14:51:22;11.40;99.90
10964;DHT22;5534;48.784;9.190;2024-03-08T14:53:52;11.40;99.90
10964;DHT22;5534;48.784;9.190;2024-03-08T14:56:18;11.50;99.90
10964;DHT22;5534;48.784;9.190;2024-03-08T14:58:47;11.40;99.90
10964;DHT22;5534;48.784;9.190;2024-03-08T15:01:15;11.40;99.90
10964;DHT22;5534;48.784;9.190;2024-03-08T15:03:44;11.40;99.90
10964;DHT22;5534;48.784;9.190;2024-03-08T15:06:10;11.40;99.90
10964;DHT22;5534;48.784;9.190;2024-03-08T15:08:36;11.50;99.90
10964;DHT22;5534;48.784;9.190;2024-03-08T15:11:03;11.50;99.90
10964;DHT22;5534;48.784;9.190;2024-03-08T15:13:28;11.40;99.90
10964;DHT22;5534;48.784;9.190;2024-03-08T15:16:03;11.30;99.90
10964;DHT22;5534;48.784;9.190;2024-03-08T15:18:32;11.40;99.90
10964;DHT22;5534;48.784;9.190;2024-03-08T15:21:00;11.20;99.90
10964;DHT22;5534;48.784;9.190;2024-03-08T15:23:26;11.40;99.90
10964;DHT22;5534;48.784;9.190;2024-03-08T15:25:51;11.40;99.90
10964;DHT22;5534;48.784;9.190;2024-03-08T15:28:17;11.50;99.90
10964;DHT22;5534;48.784;9.190;2024-03-08T15:30:46;11.40;99.90
10964;DHT22;5534;48.784;9.190;2024-03-08T15:33:16;11.40;99.90
10964;DHT22;5534;48.784;9.190;2024-03-08T15:35:50;11.40;99.90
10964;DHT22;5534;48.784;9.190;2024-03-08T15:38:23;11.40;99.90
10964;DHT22;5534;48.784;9.190;2024-03-08T15:40:49;11.50;99.90
10964;DHT22;5534;48.784;9.190;2024-03-08T15:43:16;11.50;99.90
10964;DHT22;5534;48.784;9.190;2024-03-08T15:45:45;11.60;99.90
10964;DHT22;5534;48.784;9.190;2024-03-08T15:48:12;11.70;99.90
10964;DHT22;5534;48.784;9.190;2024-03-08T15:50:38;11.60;99.90
10964;DHT22;5534;48.784;9.190;2024-03-08T15:53:04;11.50;99.90
10964;DHT22;5534;48.784;9.190;2024-03-08T15:55:30;11.40;99.90
10964;DHT22;5534;48.784;9.190;2024-03-08T15:57:57;11.40;99.90
10964;DHT22;5534;48.784;9.190;2024-03-08T16:00:26;11.40;99.90
10964;DHT22;5534;48.784;9.190;2024-03-08T16:03:12;11.50;99.90
10964;DHT22;5534;48.784;9.190;2024-03-08T16:05:39;11.40;99.90
10964;DHT22;5534;48.784;9.190;2024-03-08T16:08:12;11.40;99.90
10964;DHT22;5534;48.784;9.190;2024-03-08T16:10:48;11.50;99.90
10964;DHT22;5534;48.784;9.190;2024-03-08T16:13:18;11.50;99.90